sensor_id;sensor_type;location;lat;lon;timestamp;temperature;humidity
7174;DHT22;3628;48.654;8.932;2023-11-19T00:01:08;8.10;99.90
7174;DHT22;3628;48.654;8.932;2023-11-19T00:03:34;8.10;99.90
7174;DHT22;3628;48.654;8.932;2023-11-19T00:06:01;8.10;99.90
7174;DHT22;3628;48.654;8.932;2023-11-19T00:08:26;8.10;99.90
7174;DHT22;3628;48.654;8.932;2023-11-19T00:10:52;8.10;99.90
7174;DHT22;3628;48.654;8.932;2023-11-19T00:13:18;8.20;99.90
7174;DHT22;3628;48.654;8.932;2023-11-19T00:15:43;8.20;99.90
7174;DHT22;3628;48.654;8.932;2023-11-19T00:18:10;8.30;99.90
7174;DHT22;3628;48.654;8.932;2023-11-19T00:20:36;8.30;99.90
7174;DHT22;3628;48.654;8.932;2023-11-19T00:23:01;8.30;99.90
7174;DHT22;3628;48.654;8.932;2023-11-19T00:25:28;8.40;99.90
7174;DHT22;3628;48.654;8.932;2023-11-19T00:27:53;8.40;99.90
7174;DHT22;3628;48.654;8.932;2023-11-19T00:30:19;8.50;99.90
7174;DHT22;3628;48.654;8.932;2023-11-19T00:32:44;8.50;99.90
7174;DHT22;3628;48.654;8.932;2023-11-19T00:35:10;8.50;99.90
7174;DHT22;3628;48.654;8.932;2023-11-19T00:37:36;8.50;99.90
7174;DHT22;3628;48.654;8.932;2023-11-19T00:40:02;8.50;99.90
7174;DHT22;3628;48.654;8.932;2023-11-19T00:42:31;8.60;99.90
7174;DHT22;3628;48.654;8.932;2023-11-19T00:44:56;8.60;99.90
7174;DHT22;3628;48.654;8.932;2023-11-19T00:47:23;8.70;99.90
7174;DHT22;3628;48.654;8.932;2023-11-19T00:49:49;8.70;99.90
7174;DHT22;3628;48.654;8.932;2023-11-19T00:52:16;8.80;99.90
7174;DHT22;3628;48.654;8.932;2023-11-19T00:54:42;8.80;99.90
7174;DHT22;3628;48.654;8.932;2023-11-19T00:57:07;8.90;99.90
7174;DHT22;3628;48.654;8.932;2023-11-19T00:59:33;8.90;99.90
7174;DHT22;3628;48.654;8.932;2023-11-19T01:01:58;8.90;99.90
7174;DHT22;3628;48.654;8.932;2023-11-19T01:04:34;9.00;99.90
7174;DHT22;3628;48.654;8.932;2023-11-19T01:07:04;9.00;99.90
7174;DHT22;3628;48.654;8.932;2023-11-19T01:09:31;9.00;99.90
7174;DHT22;3628;48.654;8.932;2023-11-19T01:12:00;9.10;99.90
7174;DHT22;3628;48.654;8.932;2023-11-19T01:14:27;9.10;99.90
7174;DHT22;3628;48.654;8.932;2023-11-19T01:16:53;9.10;99.90
7174;DHT22;3628;48.654;8.932;2023-11-19T01:19:22;9.10;99.90
7174;DHT22;3628;48.654;8.932;2023-11-19T01:21:48;9.20;99.90
7174;DHT22;3628;48.654;8.932;2023-11-19T01:24:14;9.20;99.90
7174;DHT22;3628;48.654;8.932;2023-11-19T01:26:41;9.20;99.90
7174;DHT22;3628;48.654;8.932;2023-11-19T01:29:14;9.20;99.90
7174;DHT22;3628;48.654;8.932;2023-11-19T01:31:45;9.30;99.90
7174;DHT22;3628;48.654;8.932;2023-11-19T01:34:10;9.20;99.90
7174;DHT22;3628;48.654;8.932;2023-11-19T01:36:37;9.30;99.90
7174;DHT22;3628;48.654;8.932;2023-11-19T01:39:02;9.20;99.90
7174;DHT22;3628;48.654;8.932;2023-11-19T01:41:34;9.20;99.90
7174;DHT22;3628;48.654;8.932;2023-11-19T01:44:00;9.30;99.90
7174;DHT22;3628;48.654;8.932;2023-11-19T01:46:25;9.30;99.90
7174;DHT22;3628;48.654;8.932;2023-11-19T01:48:52;9.40;99.90
7174;DHT22;3628;48.654;8.932;2023-11-19T01:51:17;9.40;99.90
7174;DHT22;3628;48.654;8.932;2023-11-19T01:53:43;9.40;99.90
7174;DHT22;3628;48.654;8.932;2023-11-19T01:56:12;9.40;99.90
7174;DHT22;3628;48.654;8.932;2023-11-19T01:58:39;9.50;99.90
7174;DHT22;3628;48.654;8.932;2023-11-19T02:01:06;9.50;99.90
7174;DHT22;3628;48.654;8.932;2023-11-19T02:03:33;9.50;99.90
7174;DHT22;3628;48.654;8.932;2023-11-19T02:05:59;9.60;99.90
7174;DHT22;3628;48.654;8.932;2023-11-19T02:08:25;9.60;99.90
7174;DHT22;3628;48.654;8.932;2023-11-19T02:10:51;9.60;99.90
7174;DHT22;3628;48.654;8.932;2023-11-19T02:13:18;9.60;99.90
7174;DHT22;3628;48.654;8.932;2023-11-19T02:15:44;9.60;99.90
7174;DHT22;3628;48.654;8.932;2023-11-19T02:18:24;9.70;99.90
7174;DHT22;3628;48.654;8.932;2023-11-19T02:20:53;9.70;99.90
7174;DHT22;3628;48.654;8.932;2023-11-19T02:23:20;9.70;99.90
7174;DHT22;3628;48.654;8.932;2023-11-19T02:28:23;9.70;99.90
7174;DHT22;3628;48.654;8.932;2023-11-19T02:30:49;9.80;99.90
7174;DHT22;3628;48.654;8.932;2023-11-19T02:33:15;9.80;99.90
7174;DHT22;3628;48.654;8.932;2023-11-19T02:35:40;9.70;99.90
7174;DHT22;3628;48.654;8.932;2023-11-19T02:38:06;9.80;99.90
7174;DHT22;3628;48.654;8.932;2023-11-19T02:40:32;9.80;99.90
7174;DHT22;3628;48.654;8.932;2023-11-19T02:42:58;9.80;99.90
7174;DHT22;3628;48.654;8.932;2023-11-19T02:45:24;9.80;99.90
7174;DHT22;3628;48.654;8.932;2023-11-19T02:47:53;9.80;99.90
7174;DHT22;3628;48.654;8.932;2023-11-19T02:50:20;9.90;99.90
7174;DHT22;3628;48.654;8.932;2023-11-19T02:52:52;9.90;99.90
7174;DHT22;3628;48.654;8.932;2023-11-19T02:55:18;10.00;99.90
7174;DHT22;3628;48.654;8.932;2023-11-19T02:57:44;10.00;99.90
7174;DHT22;3628;48.654;8.932;2023-11-19T03:00:19;10.00;99.90
7174;DHT22;3628;48.654;8.932;2023-11-19T03:02:49;10.00;99.90
7174;DHT22;3628;48.654;8.932;2023-11-19T03:05:24;10.00;99.90
7174;DHT22;3628;48.654;8.932;2023-11-19T03:07:50;10.10;99.90
7174;DHT22;3628;48.654;8.932;2023-11-19T03:10:16;10.10;99.90
7174;DHT22;3628;48.654;8.932;2023-11-19T03:12:43;10.10;99.90
7174;DHT22;3628;48.654;8.932;2023-11-19T03:15:09;10.20;99.90
7174;DHT22;3628;48.654;8.932;2023-11-19T03:17:36;10.20;99.90
7174;DHT22;3628;48.654;8.932;2023-11-19T03:20:05;10.20;99.90
7174;DHT22;3628;48.654;8.932;2023-11-19T03:22:32;10.30;99.90
7174;DHT22;3628;48.654;8.932;2023-11-19T03:24:59;10.30;99.90
7174;DHT22;3628;48.654;8.932;2023-11-19T03:27:25;10.30;99.90
7174;DHT22;3628;48.654;8.932;2023-11-19T03:29:50;10.30;99.90
7174;DHT22;3628;48.654;8.932;2023-11-19T03:32:16;10.30;99.90
7174;DHT22;3628;48.654;8.932;2023-11-19T03:34:41;10.30;99.90
7174;DHT22;3628;48.654;8.932;2023-11-19T03:37:07;10.40;99.90
7174;DHT22;3628;48.654;8.932;2023-11-19T03:39:32;10.40;99.90
7174;DHT22;3628;48.654;8.932;2023-11-19T03:41:58;10.40;99.90
7174;DHT22;3628;48.654;8.932;2023-11-19T03:44:26;10.40;99.90
7174;DHT22;3628;48.654;8.932;2023-11-19T03:46:52;10.40;99.90
7174;DHT22;3628;48.654;8.932;2023-11-19T03:49:18;10.40;99.90
7174;DHT22;3628;48.654;8.932;2023-11-19T03:51:43;10.40;99.90
7174;DHT22;3628;48.654;8.932;2023-11-19T03:54:09;10.40;99.90
7174;DHT22;3628;48.654;8.932;2023-11-19T03:56:35;10.40;99.90
7174;DHT22;3628;48.654;8.932;2023-11-19T03:59:01;10.50;99.90
7174;DHT22;3628;48.654;8.932;2023-11-19T04:01:26;10.40;99.90
7174;DHT22;3628;48.654;8.932;2023-11-19T04:03:52;10.40;99.90
7174;DHT22;3628;48.654;8.932;2023-11-19T04:06:17;10.40;99.90
7174;DHT22;3628;48.654;8.932;2023-11-19T04:08:43;10.40;99.90
7174;DHT22;3628;48.654;8.932;2023-11-19T04:11:08;10.40;99.90
7174;DHT22;3628;48.654;8.932;2023-11-19T04:13:34;10.30;99.90
7174;DHT22;3628;48.654;8.932;2023-11-19T04:16:00;10.30;99.90
7174;DHT22;3628;48.654;8.932;2023-11-19T04:18:25;10.40;99.90
7174;DHT22;3628;48.654;8.932;2023-11-19T04:20:51;10.40;99.90
7174;DHT22;3628;48.654;8.932;2023-11-19T04:23:16;10.40;99.90
7174;DHT22;3628;48.654;8.932;2023-11-19T04:25:42;10.40;99.90
7174;DHT22;3628;48.654;8.932;2023-11-19T04:28:08;10.50;99.90
7174;DHT22;3628;48.654;8.932;2023-11-19T04:30:33;10.50;99.90
7174;DHT22;3628;48.654;8.932;2023-11-19T04:33:00;10.50;99.90
7174;DHT22;3628;48.654;8.932;2023-11-19T04:35:26;10.60;99.90
7174;DHT22;3628;48.654;8.932;2023-11-19T04:37:52;10.60;99.90
7174;DHT22;3628;48.654;8.932;2023-11-19T04:40:17;10.60;99.90
7174;DHT22;3628;48.654;8.932;2023-11-19T04:42:48;10.60;99.90
7174;DHT22;3628;48.654;8.932;2023-11-19T04:45:13;10.60;99.90
7174;DHT22;3628;48.654;8.932;2023-11-19T04:47:39;10.60;99.90
7174;DHT22;3628;48.654;8.932;2023-11-19T04:50:05;10.50;99.90
7174;DHT22;3628;48.654;8.932;2023-11-19T04:52:31;10.50;99.90
7174;DHT22;3628;48.654;8.932;2023-11-19T04:54:56;10.50;99.90
7174;DHT22;3628;48.654;8.932;2023-11-19T04:57:22;10.60;99.90
7174;DHT22;3628;48.654;8.932;2023-11-19T04:59:47;10.60;99.90
7174;DHT22;3628;48.654;8.932;2023-11-19T05:02:13;10.60;99.90
7174;DHT22;3628;48.654;8.932;2023-11-19T05:04:43;10.60;99.90
7174;DHT22;3628;48.654;8.932;2023-11-19T05:07:14;10.60;99.90
7174;DHT22;3628;48.654;8.932;2023-11-19T05:09:39;10.60;99.90
7174;DHT22;3628;48.654;8.932;2023-11-19T05:12:06;10.60;99.90
7174;DHT22;3628;48.654;8.932;2023-11-19T05:14:35;10.70;99.90
7174;DHT22;3628;48.654;8.932;2023-11-19T05:17:00;10.70;99.90
7174;DHT22;3628;48.654;8.932;2023-11-19T05:19:26;10.70;99.90
7174;DHT22;3628;48.654;8.932;2023-11-19T05:21:51;10.70;99.90
7174;DHT22;3628;48.654;8.932;2023-11-19T05:24:17;10.70;99.90
7174;DHT22;3628;48.654;8.932;2023-11-19T05:26:43;10.70;99.90
7174;DHT22;3628;48.654;8.932;2023-11-19T05:29:09;10.70;99.90
7174;DHT22;3628;48.654;8.932;2023-11-19T05:31:34;10.70;99.90
7174;DHT22;3628;48.654;8.932;2023-11-19T05:34:00;10.80;99.90
7174;DHT22;3628;48.654;8.932;2023-11-19T05:36:25;10.80;99.90
7174;DHT22;3628;48.654;8.932;2023-11-19T05:38:51;10.80;99.90
7174;DHT22;3628;48.654;8.932;2023-11-19T05:41:16;10.90;99.90
7174;DHT22;3628;48.654;8.932;2023-11-19T05:43:42;10.80;99.90
7174;DHT22;3628;48.654;8.932;2023-11-19T05:46:07;10.90;99.90
7174;DHT22;3628;48.654;8.932;2023-11-19T05:48:34;10.90;99.90
7174;DHT22;3628;48.654;8.932;2023-11-19T05:51:00;10.90;99.90
7174;DHT22;3628;48.654;8.932;2023-11-19T05:53:25;10.90;99.90
7174;DHT22;3628;48.654;8.932;2023-11-19T05:55:51;10.90;99.90
7174;DHT22;3628;48.654;8.932;2023-11-19T05:58:30;10.90;99.90
7174;DHT22;3628;48.654;8.932;2023-11-19T06:00:56;10.90;99.90
7174;DHT22;3628;48.654;8.932;2023-11-19T06:03:22;11.00;99.90
7174;DHT22;3628;48.654;8.932;2023-11-19T06:05:48;11.00;99.90
7174;DHT22;3628;48.654;8.932;2023-11-19T06:08:14;11.00;99.90
7174;DHT22;3628;48.654;8.932;2023-11-19T06:10:44;11.00;99.90
7174;DHT22;3628;48.654;8.932;2023-11-19T06:13:12;11.00;99.90
7174;DHT22;3628;48.654;8.932;2023-11-19T06:15:38;11.00;99.90
7174;DHT22;3628;48.654;8.932;2023-11-19T06:18:03;11.00;99.90
7174;DHT22;3628;48.654;8.932;2023-11-19T06:20:33;11.00;99.90
7174;DHT22;3628;48.654;8.932;2023-11-19T06:22:59;11.00;99.90
7174;DHT22;3628;48.654;8.932;2023-11-19T06:25:25;10.90;99.90
7174;DHT22;3628;48.654;8.932;2023-11-19T06:27:51;11.00;99.90
7174;DHT22;3628;48.654;8.932;2023-11-19T06:30:17;11.00;99.90
7174;DHT22;3628;48.654;8.932;2023-11-19T06:32:42;11.00;99.90
7174;DHT22;3628;48.654;8.932;2023-11-19T06:35:08;11.00;99.90
7174;DHT22;3628;48.654;8.932;2023-11-19T06:37:35;11.00;99.90
7174;DHT22;3628;48.654;8.932;2023-11-19T06:40:01;11.00;99.90
7174;DHT22;3628;48.654;8.932;2023-11-19T06:42:26;11.00;99.90
7174;DHT22;3628;48.654;8.932;2023-11-19T06:44:52;11.00;99.90
7174;DHT22;3628;48.654;8.932;2023-11-19T06:47:18;11.00;99.90
7174;DHT22;3628;48.654;8.932;2023-11-19T06:49:44;11.00;99.90
7174;DHT22;3628;48.654;8.932;2023-11-19T06:52:10;11.00;99.90
7174;DHT22;3628;48.654;8.932;2023-11-19T06:54:35;11.00;99.90
7174;DHT22;3628;48.654;8.932;2023-11-19T06:57:01;11.00;99.90
7174;DHT22;3628;48.654;8.932;2023-11-19T06:59:28;10.90;99.90
7174;DHT22;3628;48.654;8.932;2023-11-19T07:01:55;10.90;99.90
7174;DHT22;3628;48.654;8.932;2023-11-19T07:04:21;10.90;99.90
7174;DHT22;3628;48.654;8.932;2023-11-19T07:06:46;10.80;99.90
7174;DHT22;3628;48.654;8.932;2023-11-19T07:09:13;10.80;99.90
7174;DHT22;3628;48.654;8.932;2023-11-19T07:11:40;10.80;99.90
7174;DHT22;3628;48.654;8.932;2023-11-19T07:14:07;10.80;99.90
7174;DHT22;3628;48.654;8.932;2023-11-19T07:16:36;10.90;99.90
7174;DHT22;3628;48.654;8.932;2023-11-19T07:19:05;10.80;99.90
7174;DHT22;3628;48.654;8.932;2023-11-19T07:21:32;10.90;99.90
7174;DHT22;3628;48.654;8.932;2023-11-19T07:23:58;10.90;99.90
7174;DHT22;3628;48.654;8.932;2023-11-19T07:26:25;10.90;99.90
7174;DHT22;3628;48.654;8.932;2023-11-19T07:28:50;10.90;99.90
7174;DHT22;3628;48.654;8.932;2023-11-19T07:31:17;11.00;99.90
7174;DHT22;3628;48.654;8.932;2023-11-19T07:33:46;11.00;99.90
7174;DHT22;3628;48.654;8.932;2023-11-19T07:36:13;11.00;99.90
7174;DHT22;3628;48.654;8.932;2023-11-19T07:38:38;11.10;99.90
7174;DHT22;3628;48.654;8.932;2023-11-19T07:41:05;11.10;99.90
7174;DHT22;3628;48.654;8.932;2023-11-19T07:43:31;11.10;99.90
7174;DHT22;3628;48.654;8.932;2023-11-19T07:45:56;11.10;99.90
7174;DHT22;3628;48.654;8.932;2023-11-19T07:48:24;11.10;99.90
7174;DHT22;3628;48.654;8.932;2023-11-19T07:50:50;11.20;99.90
7174;DHT22;3628;48.654;8.932;2023-11-19T07:53:16;11.20;99.90
7174;DHT22;3628;48.654;8.932;2023-11-19T07:55:42;11.20;99.90
7174;DHT22;3628;48.654;8.932;2023-11-19T07:58:10;11.30;99.90
7174;DHT22;3628;48.654;8.932;2023-11-19T08:00:35;11.30;99.90
7174;DHT22;3628;48.654;8.932;2023-11-19T08:03:01;11.30;99.90
7174;DHT22;3628;48.654;8.932;2023-11-19T08:05:26;11.40;99.90
7174;DHT22;3628;48.654;8.932;2023-11-19T08:07:52;11.40;99.90
7174;DHT22;3628;48.654;8.932;2023-11-19T08:10:19;11.40;99.90
7174;DHT22;3628;48.654;8.932;2023-11-19T08:12:44;11.40;99.90
7174;DHT22;3628;48.654;8.932;2023-11-19T08:15:10;11.40;99.90
7174;DHT22;3628;48.654;8.932;2023-11-19T08:17:36;11.40;99.90
7174;DHT22;3628;48.654;8.932;2023-11-19T08:20:03;11.40;99.90
7174;DHT22;3628;48.654;8.932;2023-11-19T08:22:30;11.40;99.90
7174;DHT22;3628;48.654;8.932;2023-11-19T08:24:56;11.50;99.90
7174;DHT22;3628;48.654;8.932;2023-11-19T08:27:21;11.50;99.90
7174;DHT22;3628;48.654;8.932;2023-11-19T08:29:53;11.50;99.90
7174;DHT22;3628;48.654;8.932;2023-11-19T08:32:21;11.50;99.90
7174;DHT22;3628;48.654;8.932;2023-11-19T08:34:46;11.50;99.90
7174;DHT22;3628;48.654;8.932;2023-11-19T08:37:12;11.60;99.90
7174;DHT22;3628;48.654;8.932;2023-11-19T08:39:38;11.70;99.90
7174;DHT22;3628;48.654;8.932;2023-11-19T08:42:04;11.80;99.90
7174;DHT22;3628;48.654;8.932;2023-11-19T08:44:29;11.90;99.90
7174;DHT22;3628;48.654;8.932;2023-11-19T08:46:55;12.00;99.90
7174;DHT22;3628;48.654;8.932;2023-11-19T08:49:21;12.10;99.90
7174;DHT22;3628;48.654;8.932;2023-11-19T08:51:46;12.20;99.90
7174;DHT22;3628;48.654;8.932;2023-11-19T08:54:12;12.30;99.90
7174;DHT22;3628;48.654;8.932;2023-11-19T08:56:38;12.40;99.90
7174;DHT22;3628;48.654;8.932;2023-11-19T08:59:04;12.50;99.90
7174;DHT22;3628;48.654;8.932;2023-11-19T09:01:30;12.70;99.90
7174;DHT22;3628;48.654;8.932;2023-11-19T09:03:55;12.90;99.90
7174;DHT22;3628;48.654;8.932;2023-11-19T09:06:21;13.10;99.90
7174;DHT22;3628;48.654;8.932;2023-11-19T09:08:47;13.30;99.90
7174;DHT22;3628;48.654;8.932;2023-11-19T09:11:12;13.60;99.90
7174;DHT22;3628;48.654;8.932;2023-11-19T09:13:38;13.80;99.90
7174;DHT22;3628;48.654;8.932;2023-11-19T09:16:04;14.00;99.90
7174;DHT22;3628;48.654;8.932;2023-11-19T09:18:30;14.10;99.90
7174;DHT22;3628;48.654;8.932;2023-11-19T09:20:57;14.20;99.90
7174;DHT22;3628;48.654;8.932;2023-11-19T09:23:23;14.30;99.90
7174;DHT22;3628;48.654;8.932;2023-11-19T09:25:50;14.40;99.90
7174;DHT22;3628;48.654;8.932;2023-11-19T09:28:16;14.40;99.90
7174;DHT22;3628;48.654;8.932;2023-11-19T09:30:41;14.40;99.90
7174;DHT22;3628;48.654;8.932;2023-11-19T09:33:07;14.40;99.90
7174;DHT22;3628;48.654;8.932;2023-11-19T09:35:32;14.50;99.90
7174;DHT22;3628;48.654;8.932;2023-11-19T09:37:58;14.50;99.90
7174;DHT22;3628;48.654;8.932;2023-11-19T09:40:24;14.50;99.90
7174;DHT22;3628;48.654;8.932;2023-11-19T09:42:50;14.50;99.90
7174;DHT22;3628;48.654;8.932;2023-11-19T09:45:16;14.60;99.90
7174;DHT22;3628;48.654;8.932;2023-11-19T09:47:44;14.50;99.90
7174;DHT22;3628;48.654;8.932;2023-11-19T09:50:17;14.40;99.90
7174;DHT22;3628;48.654;8.932;2023-11-19T09:52:47;14.30;99.90
7174;DHT22;3628;48.654;8.932;2023-11-19T09:55:12;14.20;99.90
7174;DHT22;3628;48.654;8.932;2023-11-19T09:57:39;14.20;99.90
7174;DHT22;3628;48.654;8.932;2023-11-19T10:00:07;14.10;99.90
7174;DHT22;3628;48.654;8.932;2023-11-19T10:02:34;14.10;99.90
7174;DHT22;3628;48.654;8.932;2023-11-19T10:05:07;14.10;99.90
7174;DHT22;3628;48.654;8.932;2023-11-19T10:07:33;14.10;99.90
7174;DHT22;3628;48.654;8.932;2023-11-19T10:10:00;14.10;99.90
7174;DHT22;3628;48.654;8.932;2023-11-19T10:12:27;14.10;99.90
7174;DHT22;3628;48.654;8.932;2023-11-19T10:14:55;14.00;99.90
7174;DHT22;3628;48.654;8.932;2023-11-19T10:17:21;14.00;99.90
7174;DHT22;3628;48.654;8.932;2023-11-19T10:19:47;14.00;99.90
7174;DHT22;3628;48.654;8.932;2023-11-19T10:22:12;14.10;99.90
7174;DHT22;3628;48.654;8.932;2023-11-19T10:24:41;14.30;99.90
7174;DHT22;3628;48.654;8.932;2023-11-19T10:27:07;14.40;99.90
7174;DHT22;3628;48.654;8.932;2023-11-19T10:29:36;14.60;99.90
7174;DHT22;3628;48.654;8.932;2023-11-19T10:32:03;14.70;99.90
7174;DHT22;3628;48.654;8.932;2023-11-19T10:34:29;14.80;99.90
7174;DHT22;3628;48.654;8.932;2023-11-19T10:36:55;14.80;99.90
7174;DHT22;3628;48.654;8.932;2023-11-19T10:39:21;14.90;99.90
7174;DHT22;3628;48.654;8.932;2023-11-19T10:41:49;14.90;99.90
7174;DHT22;3628;48.654;8.932;2023-11-19T10:44:31;15.10;99.90
7174;DHT22;3628;48.654;8.932;2023-11-19T10:46:59;15.40;99.90
7174;DHT22;3628;48.654;8.932;2023-11-19T10:49:25;15.30;99.90
7174;DHT22;3628;48.654;8.932;2023-11-19T10:51:51;15.30;99.90
7174;DHT22;3628;48.654;8.932;2023-11-19T10:54:19;15.30;99.90
7174;DHT22;3628;48.654;8.932;2023-11-19T10:56:49;15.40;99.90
7174;DHT22;3628;48.654;8.932;2023-11-19T10:59:16;15.50;99.90
7174;DHT22;3628;48.654;8.932;2023-11-19T11:01:48;15.50;99.90
7174;DHT22;3628;48.654;8.932;2023-11-19T11:04:22;15.50;99.90
7174;DHT22;3628;48.654;8.932;2023-11-19T11:06:48;15.50;99.90
7174;DHT22;3628;48.654;8.932;2023-11-19T11:09:14;15.60;99.90
7174;DHT22;3628;48.654;8.932;2023-11-19T11:11:41;15.60;99.90
7174;DHT22;3628;48.654;8.932;2023-11-19T11:14:11;15.60;99.90
7174;DHT22;3628;48.654;8.932;2023-11-19T11:16:38;15.70;99.90
7174;DHT22;3628;48.654;8.932;2023-11-19T11:19:07;15.70;99.90
7174;DHT22;3628;48.654;8.932;2023-11-19T11:21:35;15.60;99.90
7174;DHT22;3628;48.654;8.932;2023-11-19T11:27:40;15.50;99.90
7174;DHT22;3628;48.654;8.932;2023-11-19T11:33:36;15.30;99.90
7174;DHT22;3628;48.654;8.932;2023-11-19T11:36:21;15.20;99.90
7174;DHT22;3628;48.654;8.932;2023-11-19T11:38:50;15.30;99.90
7174;DHT22;3628;48.654;8.932;2023-11-19T11:41:19;15.30;99.90
7174;DHT22;3628;48.654;8.932;2023-11-19T11:43:49;15.30;99.90
7174;DHT22;3628;48.654;8.932;2023-11-19T11:49:03;15.30;99.90
7174;DHT22;3628;48.654;8.932;2023-11-19T11:54:30;15.30;99.90
7174;DHT22;3628;48.654;8.932;2023-11-19T11:57:11;15.30;99.90
7174;DHT22;3628;48.654;8.932;2023-11-19T11:59:44;15.30;99.90
7174;DHT22;3628;48.654;8.932;2023-11-19T12:02:12;15.30;99.90
7174;DHT22;3628;48.654;8.932;2023-11-19T12:04:40;15.20;99.90
7174;DHT22;3628;48.654;8.932;2023-11-19T12:07:26;15.20;99.90
7174;DHT22;3628;48.654;8.932;2023-11-19T12:09:53;15.20;99.90
7174;DHT22;3628;48.654;8.932;2023-11-19T12:12:27;15.30;99.90
7174;DHT22;3628;48.654;8.932;2023-11-19T12:20:00;15.50;99.90
7174;DHT22;3628;48.654;8.932;2023-11-19T12:22:27;15.50;99.90
7174;DHT22;3628;48.654;8.932;2023-11-19T12:24:56;15.50;99.90
7174;DHT22;3628;48.654;8.932;2023-11-19T12:27:22;15.70;99.90
7174;DHT22;3628;48.654;8.932;2023-11-19T12:29:48;15.70;99.90
7174;DHT22;3628;48.654;8.932;2023-11-19T12:32:14;15.70;99.90
7174;DHT22;3628;48.654;8.932;2023-11-19T12:34:40;15.70;99.90
7174;DHT22;3628;48.654;8.932;2023-11-19T12:37:06;15.80;99.90
7174;DHT22;3628;48.654;8.932;2023-11-19T12:39:32;15.80;99.90
7174;DHT22;3628;48.654;8.932;2023-11-19T12:41:57;15.80;99.90
7174;DHT22;3628;48.654;8.932;2023-11-19T12:44:26;15.70;99.90
7174;DHT22;3628;48.654;8.932;2023-11-19T12:47:06;15.70;99.90
7174;DHT22;3628;48.654;8.932;2023-11-19T12:49:35;15.60;99.90
7174;DHT22;3628;48.654;8.932;2023-11-19T12:52:00;15.50;99.90
7174;DHT22;3628;48.654;8.932;2023-11-19T12:54:36;15.30;99.90
7174;DHT22;3628;48.654;8.932;2023-11-19T12:57:03;15.20;99.90
7174;DHT22;3628;48.654;8.932;2023-11-19T12:59:30;15.10;99.90
7174;DHT22;3628;48.654;8.932;2023-11-19T13:01:57;15.00;99.90
7174;DHT22;3628;48.654;8.932;2023-11-19T13:04:23;14.90;99.90
7174;DHT22;3628;48.654;8.932;2023-11-19T13:06:52;14.90;99.90
7174;DHT22;3628;48.654;8.932;2023-11-19T13:09:22;15.00;99.90
7174;DHT22;3628;48.654;8.932;2023-11-19T13:11:49;15.10;99.90
7174;DHT22;3628;48.654;8.932;2023-11-19T13:14:15;15.10;99.90
7174;DHT22;3628;48.654;8.932;2023-11-19T13:16:40;15.10;99.90
7174;DHT22;3628;48.654;8.932;2023-11-19T13:19:07;15.10;99.90
7174;DHT22;3628;48.654;8.932;2023-11-19T13:21:34;15.10;99.90
7174;DHT22;3628;48.654;8.932;2023-11-19T13:23:59;15.20;99.90
7174;DHT22;3628;48.654;8.932;2023-11-19T13:26:25;15.20;99.90
7174;DHT22;3628;48.654;8.932;2023-11-19T13:28:51;15.30;99.90
7174;DHT22;3628;48.654;8.932;2023-11-19T13:31:17;15.30;99.90
7174;DHT22;3628;48.654;8.932;2023-11-19T13:33:42;15.40;99.90
7174;DHT22;3628;48.654;8.932;2023-11-19T13:36:08;15.50;99.90
7174;DHT22;3628;48.654;8.932;2023-11-19T13:38:35;15.60;99.90
7174;DHT22;3628;48.654;8.932;2023-11-19T13:41:04;15.70;99.90
7174;DHT22;3628;48.654;8.932;2023-11-19T13:43:30;15.60;99.90
7174;DHT22;3628;48.654;8.932;2023-11-19T13:45:56;15.50;99.90
7174;DHT22;3628;48.654;8.932;2023-11-19T13:48:23;15.30;99.90
7174;DHT22;3628;48.654;8.932;2023-11-19T13:50:49;15.10;99.90
7174;DHT22;3628;48.654;8.932;2023-11-19T13:53:15;15.00;99.90
7174;DHT22;3628;48.654;8.932;2023-11-19T13:55:42;14.90;99.90
7174;DHT22;3628;48.654;8.932;2023-11-19T13:58:07;14.90;99.90
7174;DHT22;3628;48.654;8.932;2023-11-19T14:00:33;15.00;99.90
7174;DHT22;3628;48.654;8.932;2023-11-19T14:02:59;15.00;99.90
7174;DHT22;3628;48.654;8.932;2023-11-19T14:05:24;14.90;99.90
7174;DHT22;3628;48.654;8.932;2023-11-19T14:07:50;14.90;99.90
7174;DHT22;3628;48.654;8.932;2023-11-19T14:10:17;14.80;99.90
7174;DHT22;3628;48.654;8.932;2023-11-19T14:12:42;14.70;99.90
7174;DHT22;3628;48.654;8.932;2023-11-19T14:15:09;14.60;99.90
7174;DHT22;3628;48.654;8.932;2023-11-19T14:17:36;14.60;99.90
7174;DHT22;3628;48.654;8.932;2023-11-19T14:20:02;14.60;99.90
7174;DHT22;3628;48.654;8.932;2023-11-19T14:22:48;14.60;99.90
7174;DHT22;3628;48.654;8.932;2023-11-19T14:25:15;14.50;99.90
7174;DHT22;3628;48.654;8.932;2023-11-19T14:27:42;14.50;99.90
7174;DHT22;3628;48.654;8.932;2023-11-19T14:30:10;14.50;99.90
7174;DHT22;3628;48.654;8.932;2023-11-19T14:32:40;14.40;99.90
7174;DHT22;3628;48.654;8.932;2023-11-19T14:35:06;14.30;99.90
7174;DHT22;3628;48.654;8.932;2023-11-19T14:37:32;14.20;99.90
7174;DHT22;3628;48.654;8.932;2023-11-19T14:39:58;14.00;99.90
7174;DHT22;3628;48.654;8.932;2023-11-19T14:42:24;13.80;99.90
7174;DHT22;3628;48.654;8.932;2023-11-19T14:44:54;13.70;99.90
7174;DHT22;3628;48.654;8.932;2023-11-19T14:47:21;13.60;99.90
7174;DHT22;3628;48.654;8.932;2023-11-19T14:49:46;13.50;99.90
7174;DHT22;3628;48.654;8.932;2023-11-19T14:52:12;13.50;99.90
7174;DHT22;3628;48.654;8.932;2023-11-19T14:54:38;13.40;99.90
7174;DHT22;3628;48.654;8.932;2023-11-19T14:57:05;13.40;99.90
7174;DHT22;3628;48.654;8.932;2023-11-19T14:59:31;13.40;99.90
7174;DHT22;3628;48.654;8.932;2023-11-19T15:01:58;13.30;99.90
7174;DHT22;3628;48.654;8.932;2023-11-19T15:04:25;13.20;99.90
7174;DHT22;3628;48.654;8.932;2023-11-19T15:06:50;13.20;99.90
7174;DHT22;3628;48.654;8.932;2023-11-19T15:09:16;13.20;99.90
7174;DHT22;3628;48.654;8.932;2023-11-19T15:11:45;13.10;99.90
7174;DHT22;3628;48.654;8.932;2023-11-19T15:14:12;13.10;99.90
7174;DHT22;3628;48.654;8.932;2023-11-19T15:16:42;13.10;99.90
7174;DHT22;3628;48.654;8.932;2023-11-19T15:19:07;13.00;99.90
7174;DHT22;3628;48.654;8.932;2023-11-19T15:21:33;12.90;99.90
7174;DHT22;3628;48.654;8.932;2023-11-19T15:23:59;12.80;99.90
7174;DHT22;3628;48.654;8.932;2023-11-19T15:26:25;12.70;99.90
7174;DHT22;3628;48.654;8.932;2023-11-19T15:28:51;12.60;99.90
7174;DHT22;3628;48.654;8.932;2023-11-19T15:31:21;12.50;99.90
7174;DHT22;3628;48.654;8.932;2023-11-19T15:33:47;12.40;99.90
7174;DHT22;3628;48.654;8.932;2023-11-19T15:36:13;12.40;99.90
7174;DHT22;3628;48.654;8.932;2023-11-19T15:38:40;12.30;99.90
7174;DHT22;3628;48.654;8.932;2023-11-19T15:41:05;12.30;99.90
7174;DHT22;3628;48.654;8.932;2023-11-19T15:43:33;12.20;99.90
7174;DHT22;3628;48.654;8.932;2023-11-19T15:45:58;12.10;99.90
7174;DHT22;3628;48.654;8.932;2023-11-19T15:48:24;12.10;99.90
7174;DHT22;3628;48.654;8.932;2023-11-19T15:50:51;12.00;99.90
7174;DHT22;3628;48.654;8.932;2023-11-19T15:53:17;11.90;99.90
7174;DHT22;3628;48.654;8.932;2023-11-19T15:55:44;11.90;99.90
7174;DHT22;3628;48.654;8.932;2023-11-19T15:58:09;11.70;99.90
7174;DHT22;3628;48.654;8.932;2023-11-19T16:00:35;11.70;99.90
7174;DHT22;3628;48.654;8.932;2023-11-19T16:03:00;11.60;99.90
7174;DHT22;3628;48.654;8.932;2023-11-19T16:05:26;11.50;99.90
7174;DHT22;3628;48.654;8.932;2023-11-19T16:07:52;11.50;99.90
7174;DHT22;3628;48.654;8.932;2023-11-19T16:10:17;11.40;99.90
7174;DHT22;3628;48.654;8.932;2023-11-19T16:12:45;11.30;99.90
7174;DHT22;3628;48.654;8.932;2023-11-19T16:15:11;11.20;99.90
7174;DHT22;3628;48.654;8.932;2023-11-19T16:17:38;11.20;99.90
7174;DHT22;3628;48.654;8.932;2023-11-19T16:20:04;11.10;99.90
7174;DHT22;3628;48.654;8.932;2023-11-19T16:22:35;11.10;99.90